createdAt,value
2023-04-19T00:00:23.946Z,21.63
2023-04-19T00:05:26.196Z,21.20
2023-04-19T00:10:28.441Z,21.80
2023-04-19T00:15:29.951Z,17.55
2023-04-19T00:20:31.408Z,17.55
2023-04-19T00:25:34.595Z,17.45
2023-04-19T00:30:36.297Z,18.45
2023-04-19T00:35:37.802Z,22.23
2023-04-19T00:40:39.300Z,20.08
2023-04-19T00:45:40.748Z,17.58
2023-04-19T00:50:44.313Z,15.82
2023-04-19T00:55:45.857Z,20.40
2023-04-19T01:00:47.332Z,14.95
2023-04-19T01:05:49.922Z,15.38
2023-04-19T01:10:51.391Z,16.02
2023-04-19T01:15:52.886Z,15.52
2023-04-19T01:20:54.473Z,16.42
2023-04-19T01:25:56.150Z,16.90
2023-04-19T01:30:57.673Z,16.27
2023-04-19T01:35:59.119Z,17.30
2023-04-19T01:41:00.576Z,15.52
2023-04-19T01:46:02.014Z,16.02
2023-04-19T01:51:03.588Z,17.05
2023-04-19T01:56:05.393Z,14.80
2023-04-19T02:01:06.841Z,16.75
2023-04-19T02:06:14.402Z,15.48
2023-04-19T02:11:15.884Z,13.05
2023-04-19T02:16:17.323Z,12.00
2023-04-19T02:21:18.857Z,14.00
2023-04-19T02:26:20.644Z,11.90
2023-04-19T02:31:22.157Z,13.27
2023-04-19T02:36:23.750Z,11.57
2023-04-19T02:41:25.249Z,11.57
2023-04-19T02:46:26.771Z,10.95
2023-04-19T02:51:28.299Z,10.38
2023-04-19T02:56:29.710Z,10.60
2023-04-19T03:01:32.351Z,9.30
2023-04-19T03:06:33.848Z,13.23
2023-04-19T03:11:35.778Z,10.10
2023-04-19T03:16:38.467Z,10.40
2023-04-19T03:21:39.920Z,12.75
2023-04-19T03:26:41.347Z,9.05
2023-04-19T03:31:42.916Z,9.20
2023-04-19T03:36:44.512Z,9.85
2023-04-19T03:41:45.969Z,9.38
2023-04-19T03:46:48.772Z,13.63
2023-04-19T03:51:50.485Z,9.38
2023-04-19T03:56:51.894Z,10.27
2023-04-19T04:01:53.367Z,9.93
2023-04-19T04:06:54.801Z,11.82
2023-04-19T04:11:56.222Z,8.13
2023-04-19T04:16:57.644Z,8.25
2023-04-19T04:21:59.040Z,8.50
2023-04-19T04:27:00.848Z,9.45
2023-04-19T04:32:03.222Z,9.30
2023-04-19T04:37:04.864Z,8.98
2023-04-19T04:42:08.663Z,8.77
2023-04-19T04:47:12.826Z,9.65
2023-04-19T04:52:14.252Z,9.65
2023-04-19T04:57:15.915Z,11.80
2023-04-19T05:02:17.409Z,10.77
2023-04-19T05:07:19.017Z,7.25
2023-04-19T05:12:20.523Z,7.80
2023-04-19T05:17:21.994Z,7.38
2023-04-19T05:22:23.514Z,8.90
2023-04-19T05:27:24.978Z,9.20
2023-04-19T05:32:27.506Z,6.47
2023-04-19T05:37:30.479Z,11.23
2023-04-19T05:42:32.074Z,10.43
2023-04-19T05:47:33.751Z,11.02
2023-04-19T05:52:35.334Z,9.32
2023-04-19T05:57:36.780Z,9.63
2023-04-19T06:02:40.748Z,7.30
2023-04-19T06:07:47.246Z,8.50
2023-04-19T06:12:55.795Z,7.72
2023-04-19T06:17:59.350Z,6.93
2023-04-19T06:23:01.369Z,8.18
2023-04-19T06:28:03.058Z,10.18
2023-04-19T06:33:04.609Z,8.07
2023-04-19T06:38:06.307Z,11.23
2023-04-19T06:43:07.762Z,7.35
2023-04-19T06:48:09.304Z,8.00
2023-04-19T06:53:10.876Z,7.35
2023-04-19T06:58:12.456Z,11.38
2023-04-19T07:03:13.941Z,9.32
2023-04-19T07:08:16.104Z,8.80
2023-04-19T07:13:17.589Z,7.97
2023-04-19T07:18:19.390Z,8.45
2023-04-19T07:23:20.810Z,9.70
2023-04-19T07:28:22.294Z,15.13
2023-04-19T07:33:27.861Z,8.93
2023-04-19T07:38:29.684Z,9.70
2023-04-19T07:43:31.111Z,11.52
2023-04-19T07:48:32.546Z,8.45
2023-04-19T07:53:33.964Z,10.35
2023-04-19T07:58:36.469Z,9.77
2023-04-19T08:03:38.241Z,11.15
2023-04-19T08:08:39.926Z,9.27
2023-04-19T08:13:42.158Z,8.75
2023-04-19T08:18:51.525Z,10.25
2023-04-19T08:23:55.655Z,12.57
2023-04-19T08:28:57.089Z,8.93
2023-04-19T08:34:00.202Z,9.55
2023-04-19T08:39:06.729Z,10.13
2023-04-19T08:44:12.366Z,7.78
2023-04-19T08:49:15.241Z,10.38
2023-04-19T08:54:18.279Z,11.00
2023-04-19T08:59:20.124Z,11.20
2023-04-19T09:04:36.563Z,8.93
2023-04-19T09:09:55.652Z,9.90
2023-04-19T09:15:04.366Z,11.82
2023-04-19T09:20:07.188Z,10.13
2023-04-19T09:30:24.201Z,15.52
2023-04-19T09:35:48.211Z,9.03
2023-04-19T09:40:50.386Z,10.98
2023-04-19T09:45:52.529Z,13.75
2023-04-19T09:51:00.799Z,12.25
2023-04-19T09:56:06.287Z,11.65
2023-04-19T10:01:15.559Z,9.85
2023-04-19T10:11:27.387Z,13.75
2023-04-19T10:16:30.654Z,11.93
2023-04-19T10:21:33.297Z,15.25
2023-04-19T10:27:03.140Z,15.25
2023-04-19T10:32:06.192Z,13.95
2023-04-19T10:37:11.248Z,10.15
2023-04-19T10:42:13.131Z,11.82
2023-04-19T10:47:44.621Z,11.38
2023-04-19T10:52:46.212Z,11.52
2023-04-19T10:58:06.569Z,12.88
2023-04-19T11:03:45.282Z,16.77
2023-04-19T11:08:47.268Z,11.43
2023-04-19T11:13:48.800Z,15.32
2023-04-19T11:18:50.237Z,10.15
2023-04-19T11:24:10.491Z,14.18
2023-04-19T11:29:12.861Z,16.02
2023-04-19T11:34:14.717Z,13.50
2023-04-19T11:39:16.504Z,14.57
2023-04-19T11:44:22.320Z,18.92
2023-04-19T11:49:28.908Z,14.10
2023-04-19T11:54:30.597Z,14.05
2023-04-19T11:59:34.855Z,15.65
2023-04-19T12:04:37.722Z,14.57
2023-04-19T12:09:39.428Z,13.70
2023-04-19T12:14:52.250Z,11.65
2023-04-19T12:19:53.703Z,11.60
2023-04-19T12:24:55.989Z,12.75
2023-04-19T12:29:57.422Z,12.80
2023-04-19T12:34:58.850Z,15.15
2023-04-19T12:40:00.372Z,17.40
2023-04-19T12:45:01.805Z,13.10
2023-04-19T12:50:03.814Z,14.35
2023-04-19T12:55:05.921Z,15.30
2023-04-19T13:00:10.603Z,16.67
2023-04-19T13:05:12.979Z,12.57
2023-04-19T13:10:14.450Z,8.40
2023-04-19T13:15:15.908Z,10.88
2023-04-19T13:20:20.221Z,12.43
2023-04-19T13:25:22.223Z,12.77
2023-04-19T13:30:23.686Z,11.63
2023-04-19T13:35:25.196Z,12.93
2023-04-19T13:40:26.893Z,12.35
2023-04-19T13:45:28.303Z,11.40
2023-04-19T13:50:30.082Z,13.07
2023-04-19T13:55:31.612Z,14.55
2023-04-19T14:00:33.925Z,11.55
2023-04-19T14:05:35.913Z,14.43
2023-04-19T14:10:38.039Z,12.23
2023-04-19T14:15:40.911Z,15.57
2023-04-19T14:20:42.361Z,12.98
2023-04-19T14:25:43.778Z,12.32
2023-04-19T14:30:45.225Z,13.55
2023-04-19T14:35:46.733Z,14.63
2023-04-19T14:40:48.398Z,12.13
2023-04-19T14:45:50.027Z,9.07
2023-04-19T14:50:51.835Z,10.60
2023-04-19T14:55:53.259Z,9.43
2023-04-19T15:00:54.875Z,9.57
2023-04-19T15:05:56.336Z,11.73
2023-04-19T15:10:57.751Z,11.45
2023-04-19T15:16:01.842Z,12.95
2023-04-19T15:21:05.153Z,9.38
2023-04-19T15:26:06.712Z,14.35
2023-04-19T15:31:08.900Z,8.80
2023-04-19T15:36:10.370Z,8.60
2023-04-19T15:41:11.828Z,8.65
2023-04-19T15:46:14.073Z,10.15
2023-04-19T15:51:16.104Z,11.88
2023-04-19T15:56:17.562Z,10.90
2023-04-19T16:01:19.421Z,19.23
2023-04-19T16:06:21.797Z,11.27
2023-04-19T16:11:23.371Z,12.68
2023-04-19T16:16:27.013Z,12.15
2023-04-19T16:21:28.783Z,10.98
2023-04-19T16:26:30.292Z,11.65
2023-04-19T16:31:31.996Z,24.75
2023-04-19T16:36:33.451Z,11.88
2023-04-19T16:41:34.875Z,11.10
2023-04-19T16:46:36.522Z,14.73
2023-04-19T16:51:38.273Z,10.40
2023-04-19T16:56:39.756Z,13.63
2023-04-19T17:01:41.280Z,11.50
2023-04-19T17:06:42.722Z,10.80
2023-04-19T17:11:44.267Z,11.55
2023-04-19T17:16:46.029Z,9.02
2023-04-19T17:21:47.461Z,9.35
2023-04-19T17:26:49.820Z,10.00
2023-04-19T17:31:51.362Z,9.63
2023-04-19T17:36:52.847Z,8.20
2023-04-19T17:41:54.919Z,8.65
2023-04-19T17:46:57.208Z,10.63
2023-04-19T17:51:58.835Z,10.18
2023-04-19T17:57:02.516Z,11.63
2023-04-19T18:02:04.169Z,14.05
2023-04-19T18:07:06.087Z,9.50
2023-04-19T18:12:07.688Z,10.90
2023-04-19T18:17:09.152Z,10.60
2023-04-19T18:22:10.579Z,12.85
2023-04-19T18:27:12.696Z,13.20
2023-04-19T18:32:14.295Z,9.13
2023-04-19T18:37:16.934Z,9.82
2023-04-19T18:42:18.373Z,11.07
2023-04-19T18:47:20.170Z,9.38
2023-04-19T18:52:21.622Z,9.00
2023-04-19T18:57:24.356Z,10.48
2023-04-19T19:02:29.029Z,11.73
2023-04-19T19:12:36.062Z,12.70
2023-04-19T19:17:38.125Z,10.95
2023-04-19T19:22:40.275Z,13.27
2023-04-19T19:27:50.135Z,12.80
2023-04-19T19:32:59.941Z,14.07
2023-04-19T19:38:01.488Z,12.68
2023-04-19T19:43:02.977Z,14.30
2023-04-19T19:48:05.069Z,17.80
2023-04-19T19:53:06.547Z,17.38
2023-04-19T20:03:12.743Z,22.00
2023-04-19T20:08:14.684Z,22.38
2023-04-19T20:13:17.040Z,19.23
2023-04-19T20:18:18.562Z,16.60
2023-04-19T20:23:21.594Z,17.38
2023-04-19T20:28:23.119Z,18.20
2023-04-19T20:33:24.559Z,17.70
2023-04-19T20:38:29.101Z,20.55
2023-04-19T20:43:30.577Z,18.88
2023-04-19T20:48:32.237Z,19.20
2023-04-19T20:53:34.146Z,16.20
2023-04-19T20:58:37.837Z,15.38
2023-04-19T21:03:39.469Z,16.15
2023-04-19T21:08:41.044Z,14.40
2023-04-19T21:13:42.608Z,13.75
2023-04-19T21:18:44.044Z,16.98
2023-04-19T21:23:45.475Z,15.57
2023-04-19T21:28:47.023Z,15.95
2023-04-19T21:33:48.472Z,16.33
2023-04-19T21:38:49.941Z,17.17
2023-04-19T21:43:51.403Z,17.05
2023-04-19T21:48:55.554Z,17.20
2023-04-19T21:53:57.369Z,12.50
2023-04-19T21:58:58.834Z,13.82
2023-04-19T22:04:01.863Z,13.88
2023-04-19T22:09:05.636Z,13.38
2023-04-19T22:14:07.781Z,13.55
2023-04-19T22:19:10.065Z,13.63
2023-04-19T22:24:11.514Z,13.40
2023-04-19T22:29:12.955Z,15.38
2023-04-19T22:34:14.406Z,13.90
2023-04-19T22:39:16.096Z,16.73
2023-04-19T22:44:17.794Z,15.68
2023-04-19T22:49:22.085Z,17.23
2023-04-19T22:54:23.514Z,16.10
2023-04-19T22:59:25.076Z,15.98
2023-04-19T23:04:26.951Z,17.63
2023-04-19T23:09:29.729Z,17.67
2023-04-19T23:14:31.396Z,20.23
2023-04-19T23:19:32.832Z,19.20
2023-04-19T23:24:36.167Z,15.88
2023-04-19T23:29:37.684Z,19.38
2023-04-19T23:34:39.116Z,19.02
2023-04-19T23:39:40.676Z,19.58
2023-04-19T23:44:43.911Z,22.77
2023-04-19T23:49:45.664Z,20.80
2023-04-19T23:54:47.083Z,21.55
2023-04-19T23:59:48.538Z,23.35
